createdAt,value
2019-02-10T00:00:14.950Z,96137.99
2019-02-10T00:02:40.826Z,96135.70
2019-02-10T00:05:07.001Z,96128.87
2019-02-10T00:07:33.290Z,96126.95
2019-02-10T00:09:59.106Z,96126.28
2019-02-10T00:12:24.946Z,96112.94
2019-02-10T00:14:50.767Z,96112.68
2019-02-10T00:17:16.789Z,96106.44
2019-02-10T00:19:42.624Z,96097.02
2019-02-10T00:22:11.372Z,96094.91
2019-02-10T00:24:37.292Z,96099.23
2019-02-10T00:27:07.096Z,96081.76
2019-02-10T00:29:33.257Z,96075.92
2019-02-10T00:32:02.725Z,96073.22
2019-02-10T00:34:28.825Z,96090.87
2019-02-10T00:36:58.013Z,96066.02
2019-02-10T00:39:24.119Z,96072.11
2019-02-10T00:41:52.998Z,96069.23
2019-02-10T00:44:19.098Z,96076.80
2019-02-10T00:46:45.182Z,96068.79
2019-02-10T00:49:11.017Z,96052.24
2019-02-10T00:51:36.982Z,96053.09
2019-02-10T00:54:02.980Z,96040.05
2019-02-10T00:56:28.861Z,96035.52
2019-02-10T00:58:57.486Z,96039.39
2019-02-10T01:01:23.300Z,96038.61
2019-02-10T01:03:52.251Z,96040.16
2019-02-10T01:06:18.324Z,96048.25
2019-02-10T01:08:47.258Z,96054.94
2019-02-10T01:11:13.393Z,96038.13
2019-02-10T01:13:40.783Z,96043.23
2019-02-10T01:16:06.597Z,96050.58
2019-02-10T01:18:37.215Z,96021.33
2019-02-10T01:21:03.122Z,96022.58
2019-02-10T01:23:28.932Z,96019.78
2019-02-10T01:25:54.787Z,96017.56
2019-02-10T01:28:20.632Z,96006.48
2019-02-10T01:30:48.030Z,96010.59
2019-02-10T01:33:14.100Z,96003.57
2019-02-10T01:35:42.728Z,95999.28
2019-02-10T01:38:08.567Z,96017.05
2019-02-10T01:40:39.065Z,95989.31
2019-02-10T01:43:05.866Z,95988.77
2019-02-10T01:45:31.996Z,95985.66
2019-02-10T01:47:57.802Z,95971.02
2019-02-10T01:50:27.246Z,95967.06
2019-02-10T01:52:53.072Z,95961.08
2019-02-10T01:55:21.819Z,95961.52
2019-02-10T01:57:47.647Z,95948.23
2019-02-10T02:00:16.621Z,95944.69
2019-02-10T02:02:42.435Z,95943.88
2019-02-10T02:05:08.371Z,95931.11
2019-02-10T02:07:34.455Z,95926.94
2019-02-10T02:10:00.320Z,95923.66
2019-02-10T02:12:29.108Z,95914.91
2019-02-10T02:14:55.145Z,95921.52
2019-02-10T02:17:24.065Z,95898.48
2019-02-10T02:19:49.907Z,95896.55
2019-02-10T02:22:17.082Z,95891.05
2019-02-10T02:24:43.197Z,95888.75
2019-02-10T02:27:13.782Z,95877.01
2019-02-10T02:29:39.632Z,95871.30
2019-02-10T02:32:08.467Z,95871.27
2019-02-10T02:34:34.575Z,95882.42
2019-02-10T02:37:07.602Z,95860.74
2019-02-10T02:39:28.252Z,95853.63
2019-02-10T02:41:54.139Z,95832.86
2019-02-10T02:44:20.269Z,95832.86
2019-02-10T02:46:46.133Z,95778.63
2019-02-10T02:52:40.772Z,95810.96
2019-02-10T02:55:08.020Z,95805.59
2019-02-10T02:57:33.833Z,95804.97
2019-02-10T02:59:59.674Z,95771.16
2019-02-10T03:02:25.514Z,95795.73
2019-02-10T03:04:51.403Z,95795.92
2019-02-10T03:07:18.254Z,95775.77
2019-02-10T03:09:44.537Z,95785.21
2019-02-10T03:12:10.678Z,95772.15
2019-02-10T03:14:36.513Z,95765.04
2019-02-10T03:17:02.372Z,95764.11
2019-02-10T03:19:28.473Z,95746.13
2019-02-10T03:21:54.321Z,95737.36
2019-02-10T03:24:20.434Z,95723.59
2019-02-10T03:26:46.263Z,95712.44
2019-02-10T03:29:12.077Z,95702.20
2019-02-10T03:31:37.922Z,95695.01
2019-02-10T03:34:03.737Z,95700.26
2019-02-10T03:36:29.870Z,95696.75
2019-02-10T03:38:55.704Z,95694.55
2019-02-10T03:41:21.550Z,95681.23
2019-02-10T03:43:47.500Z,95692.50
2019-02-10T03:46:13.616Z,95681.72
2019-02-10T03:48:39.734Z,95680.34
2019-02-10T03:51:05.876Z,95682.73
2019-02-10T03:53:31.977Z,95673.33
2019-02-10T03:55:58.150Z,95680.15
2019-02-10T03:58:24.200Z,95669.53
2019-02-10T04:00:50.032Z,95651.73
2019-02-10T04:03:15.877Z,95663.63
2019-02-10T04:05:41.696Z,95670.91
2019-02-10T04:08:07.653Z,95667.23
2019-02-10T04:10:33.473Z,95656.97
2019-02-10T04:12:59.315Z,95653.75
2019-02-10T04:15:25.262Z,95646.84
2019-02-10T04:17:51.076Z,95635.86
2019-02-10T04:20:16.969Z,95622.56
2019-02-10T04:22:43.224Z,95603.63
2019-02-10T04:25:09.062Z,95620.88
2019-02-10T04:27:34.889Z,95625.50
2019-02-10T04:30:01.264Z,95623.37
2019-02-10T04:32:27.360Z,95617.08
2019-02-10T04:34:53.496Z,95623.79
2019-02-10T04:37:19.345Z,95609.48
2019-02-10T04:39:45.240Z,95598.84
2019-02-10T04:42:11.087Z,95589.45
2019-02-10T04:44:36.935Z,95583.85
2019-02-10T04:47:03.070Z,95591.69
2019-02-10T04:49:28.881Z,95578.56
2019-02-10T04:51:55.032Z,95591.57
2019-02-10T04:54:20.879Z,95590.23
2019-02-10T04:56:46.698Z,95588.80
2019-02-10T04:59:12.569Z,95575.12
2019-02-10T05:01:38.448Z,95575.84
2019-02-10T05:04:04.298Z,95563.63
2019-02-10T05:06:30.121Z,95554.39
2019-02-10T05:08:55.973Z,95536.21
2019-02-10T05:11:21.794Z,95533.81
2019-02-10T05:13:47.605Z,95523.95
2019-02-10T05:16:16.472Z,95523.59
2019-02-10T05:18:42.323Z,95506.77
2019-02-10T05:21:11.034Z,95509.58
2019-02-10T05:23:37.130Z,95523.50
2019-02-10T05:26:04.216Z,95502.67
2019-02-10T05:28:30.310Z,95504.59
2019-02-10T05:30:58.324Z,95505.62
2019-02-10T05:33:24.134Z,95519.41
2019-02-10T05:35:53.423Z,95461.57
2019-02-10T05:38:19.257Z,95484.37
2019-02-10T05:40:45.367Z,95478.25
2019-02-10T05:43:11.235Z,95476.74
2019-02-10T05:45:37.128Z,95474.68
2019-02-10T05:48:06.283Z,95481.37
2019-02-10T05:50:32.151Z,95492.00
2019-02-10T05:53:01.014Z,95463.19
2019-02-10T05:55:26.967Z,95460.69
2019-02-10T05:57:55.807Z,95455.33
2019-02-10T06:00:21.661Z,95455.20
2019-02-10T06:02:48.926Z,95451.70
2019-02-10T06:05:39.803Z,95453.67
2019-02-10T06:08:12.998Z,95437.09
2019-02-10T06:10:33.654Z,95429.32
2019-02-10T06:12:59.485Z,95420.84
2019-02-10T06:15:25.315Z,95422.31
2019-02-10T06:17:51.174Z,95418.98
2019-02-10T06:20:17.029Z,95419.20
2019-02-10T06:22:43.026Z,95428.44
2019-02-10T06:25:09.098Z,95425.58
2019-02-10T06:27:35.201Z,95419.47
2019-02-10T06:30:01.258Z,95421.02
2019-02-10T06:32:27.073Z,95419.95
2019-02-10T06:34:52.987Z,95413.75
2019-02-10T06:37:19.078Z,95424.95
2019-02-10T06:39:44.902Z,95424.37
2019-02-10T06:42:10.826Z,95420.75
2019-02-10T06:44:37.028Z,95415.00
2019-02-10T06:47:02.827Z,95410.49
2019-02-10T06:49:28.701Z,95400.86
2019-02-10T06:51:54.522Z,95404.03
2019-02-10T06:54:20.655Z,95390.73
2019-02-10T06:56:46.474Z,95390.05
2019-02-10T06:59:14.216Z,95366.86
2019-02-10T07:01:44.466Z,95357.80
2019-02-10T07:04:13.329Z,95357.61
2019-02-10T07:06:39.424Z,95358.23
2019-02-10T07:09:05.484Z,95355.00
2019-02-10T07:11:31.362Z,95344.67
2019-02-10T07:13:57.762Z,95337.59
2019-02-10T07:16:33.221Z,95319.67
2019-02-10T07:19:36.868Z,95321.58
2019-02-10T07:22:33.452Z,95304.75
2019-02-10T07:25:12.221Z,95290.10
2019-02-10T07:27:41.448Z,95271.89
2019-02-10T07:30:11.117Z,95275.52
2019-02-10T07:32:46.108Z,95269.05
2019-02-10T07:35:27.438Z,95276.13
2019-02-10T07:37:57.159Z,95277.86
2019-02-10T07:40:26.814Z,95262.33
2019-02-10T07:42:58.990Z,95251.39
2019-02-10T07:45:31.744Z,95249.39
2019-02-10T07:48:13.103Z,95246.80
2019-02-10T07:51:01.037Z,95249.99
2019-02-10T07:53:30.673Z,95235.88
2019-02-10T07:56:15.059Z,95234.38
2019-02-10T07:58:47.412Z,95239.00
2019-02-10T08:01:37.270Z,95233.98
2019-02-10T08:04:26.791Z,95225.33
2019-02-10T08:07:14.913Z,95218.62
2019-02-10T08:10:02.521Z,95219.12
2019-02-10T08:12:58.237Z,95199.48
2019-02-10T08:15:27.881Z,95194.90
2019-02-10T08:18:13.298Z,95203.66
2019-02-10T08:20:46.209Z,95206.84
2019-02-10T08:23:19.112Z,95185.78
2019-02-10T08:25:55.229Z,95182.73
2019-02-10T08:28:41.564Z,95179.07
2019-02-10T08:31:32.718Z,95174.94
2019-02-10T08:34:08.606Z,95169.60
2019-02-10T08:36:52.921Z,95176.78
2019-02-10T08:39:31.655Z,95158.53
2019-02-10T08:42:16.773Z,95147.66
2019-02-10T08:45:03.401Z,95149.67
2019-02-10T08:47:42.304Z,95155.09
2019-02-10T08:50:15.197Z,95143.66
2019-02-10T08:52:51.969Z,95140.09
2019-02-10T08:55:15.367Z,95141.84
2019-02-10T08:57:41.500Z,95130.98
2019-02-10T09:00:10.105Z,95109.81
2019-02-10T09:02:35.938Z,95104.80
2019-02-10T09:05:01.808Z,95079.51
2019-02-10T09:07:27.930Z,95079.51
2019-02-10T09:09:53.776Z,95067.39
2019-02-10T09:12:20.289Z,95056.28
2019-02-10T09:14:46.133Z,95047.42
2019-02-10T09:17:12.270Z,95039.19
2019-02-10T09:19:38.214Z,95032.30
2019-02-10T09:22:04.051Z,95032.78
2019-02-10T09:24:29.866Z,95022.22
2019-02-10T09:26:55.997Z,95031.93
2019-02-10T09:29:21.813Z,95024.19
2019-02-10T09:31:47.941Z,95021.05
2019-02-10T09:34:13.768Z,95012.55
2019-02-10T09:36:39.881Z,95017.65
2019-02-10T09:39:10.825Z,95015.85
2019-02-10T09:41:33.692Z,94987.53
2019-02-10T09:43:59.745Z,94989.52
2019-02-10T09:46:25.610Z,94987.63
2019-02-10T09:48:51.695Z,94984.07
2019-02-10T09:51:17.513Z,94966.50
2019-02-10T09:53:43.348Z,94949.49
2019-02-10T09:56:10.675Z,94951.47
2019-02-10T09:58:36.702Z,94937.45
2019-02-10T10:01:02.641Z,94945.05
2019-02-10T10:03:28.513Z,94941.12
2019-02-10T10:05:54.338Z,94934.38
2019-02-10T10:08:20.140Z,94920.34
2019-02-10T10:10:45.977Z,94927.34
2019-02-10T10:13:11.795Z,94926.70
2019-02-10T10:15:37.916Z,94922.43
2019-02-10T10:18:03.766Z,94873.16
2019-02-10T10:20:29.613Z,94908.94
2019-02-10T10:22:55.707Z,94909.82
2019-02-10T10:25:21.554Z,94907.20
2019-02-10T10:27:47.663Z,94897.53
2019-02-10T10:30:16.522Z,94896.91
2019-02-10T10:32:42.647Z,94893.14
2019-02-10T10:35:08.891Z,94884.27
2019-02-10T10:37:34.746Z,94888.34
2019-02-10T10:40:00.590Z,94886.23
2019-02-10T10:42:26.428Z,94887.20
2019-02-10T10:44:52.223Z,94887.06
2019-02-10T10:47:18.079Z,94878.86
2019-02-10T10:49:44.020Z,94865.43
2019-02-10T10:52:09.881Z,94865.43
2019-02-10T10:54:42.615Z,94840.20
2019-02-10T10:57:03.401Z,94849.53
2019-02-10T10:59:29.239Z,94830.55
2019-02-10T11:01:55.058Z,94836.23
2019-02-10T11:04:20.913Z,94844.37
2019-02-10T11:06:46.759Z,94810.75
2019-02-10T11:09:12.629Z,94801.16
2019-02-10T11:11:38.599Z,94814.44
2019-02-10T11:14:04.702Z,94815.95
2019-02-10T11:16:30.552Z,94814.27
2019-02-10T11:18:56.694Z,94766.52
2019-02-10T11:21:22.590Z,94795.99
2019-02-10T11:23:48.394Z,94832.20
2019-02-10T11:26:14.481Z,94777.76
2019-02-10T11:28:43.335Z,94773.88
2019-02-10T11:31:09.415Z,94772.70
2019-02-10T11:33:38.256Z,94760.09
2019-02-10T11:36:04.352Z,94770.65
2019-02-10T11:38:33.594Z,94763.75
2019-02-10T11:40:59.660Z,94733.89
2019-02-10T11:43:28.773Z,94745.51
2019-02-10T11:45:54.867Z,94758.54
2019-02-10T11:48:20.970Z,94748.86
2019-02-10T11:50:46.822Z,94710.75
2019-02-10T11:53:12.675Z,94718.75
2019-02-10T11:55:38.654Z,94724.10
2019-02-10T11:58:04.475Z,94744.17
2019-02-10T12:00:33.361Z,94687.16
2019-02-10T12:02:59.543Z,94717.47
2019-02-10T12:05:28.497Z,94694.38
2019-02-10T12:07:54.392Z,94680.52
2019-02-10T12:10:23.020Z,94684.30
2019-02-10T12:12:48.863Z,94670.64
2019-02-10T12:15:17.464Z,94672.97
2019-02-10T12:17:43.368Z,94668.91
2019-02-10T12:20:14.609Z,94723.19
2019-02-10T12:22:40.963Z,94684.66
2019-02-10T12:25:08.488Z,94674.99
2019-02-10T12:27:34.334Z,94677.59
2019-02-10T12:30:00.858Z,94710.42
2019-02-10T12:32:27.171Z,94668.43
2019-02-10T12:34:53.050Z,94704.84
2019-02-10T12:37:18.854Z,94672.27
2019-02-10T12:39:44.946Z,94679.51
2019-02-10T12:42:13.904Z,94698.09
2019-02-10T12:44:40.003Z,94709.36
2019-02-10T12:47:08.680Z,94737.86
2019-02-10T12:49:34.637Z,94730.88
2019-02-10T12:52:03.669Z,94746.27
2019-02-10T12:54:29.476Z,94770.59
2019-02-10T12:56:58.367Z,94752.59
2019-02-10T12:59:24.175Z,94764.53
2019-02-10T13:01:50.313Z,94750.97
2019-02-10T13:04:16.412Z,94763.98
2019-02-10T13:06:42.350Z,94749.63
2019-02-10T13:09:12.106Z,94740.22
2019-02-10T13:11:38.029Z,94736.67
2019-02-10T13:14:03.987Z,94752.41
2019-02-10T13:16:29.778Z,94734.19
2019-02-10T13:18:58.696Z,94730.92
2019-02-10T13:21:24.539Z,94719.92
2019-02-10T13:23:54.994Z,94723.70
2019-02-10T13:26:20.820Z,94717.73
2019-02-10T13:28:52.825Z,94710.34
2019-02-10T13:31:18.894Z,94700.62
2019-02-10T13:33:44.749Z,94683.97
2019-02-10T13:36:10.683Z,94701.55
2019-02-10T13:38:36.597Z,94687.74
2019-02-10T13:41:02.750Z,94674.05
2019-02-10T13:43:33.482Z,94646.11
2019-02-10T13:45:56.276Z,94661.38
2019-02-10T13:48:22.144Z,94680.37
2019-02-10T13:50:49.466Z,94657.65
2019-02-10T13:53:15.336Z,94669.09
2019-02-10T13:55:45.855Z,94664.02
2019-02-10T13:58:11.664Z,94665.10
2019-02-10T14:00:40.303Z,94660.41
2019-02-10T14:03:06.079Z,94671.34
2019-02-10T14:05:32.943Z,94659.34
2019-02-10T14:07:58.754Z,94664.98
2019-02-10T14:10:27.532Z,94666.50
2019-02-10T14:12:55.251Z,94670.83
2019-02-10T14:15:21.119Z,94676.59
2019-02-10T14:17:46.941Z,94678.39
2019-02-10T14:20:15.355Z,94657.77
2019-02-10T14:22:41.735Z,94654.95
2019-02-10T14:25:08.032Z,94650.50
2019-02-10T14:27:36.641Z,94649.82
2019-02-10T14:30:05.492Z,94651.39
2019-02-10T14:32:31.343Z,94656.73
2019-02-10T14:34:57.441Z,94648.59
2019-02-10T14:37:24.349Z,94638.60
2019-02-10T14:39:50.482Z,94641.31
2019-02-10T14:42:19.067Z,94637.55
2019-02-10T14:44:45.174Z,94639.08
2019-02-10T14:47:13.858Z,94622.92
2019-02-10T14:49:39.695Z,94646.61
2019-02-10T14:52:05.848Z,94615.40
2019-02-10T14:54:31.711Z,94634.22
2019-02-10T14:56:57.499Z,94613.42
2019-02-10T14:59:26.562Z,94623.52
2019-02-10T15:01:52.672Z,94622.68
2019-02-10T15:04:20.365Z,94627.41
2019-02-10T15:06:46.191Z,94619.97
2019-02-10T15:09:15.080Z,94620.19
2019-02-10T15:11:40.911Z,94647.74
2019-02-10T15:14:09.674Z,94640.23
2019-02-10T15:16:35.496Z,94642.11
2019-02-10T15:19:04.636Z,94642.35
2019-02-10T15:21:30.745Z,94666.13
2019-02-10T15:23:59.557Z,94678.18
2019-02-10T15:26:25.354Z,94688.35
2019-02-10T15:28:51.443Z,94679.06
2019-02-10T15:31:17.285Z,94698.72
2019-02-10T15:33:43.385Z,94718.16
2019-02-10T15:36:12.550Z,94720.28
2019-02-10T15:38:38.378Z,94727.48
2019-02-10T15:41:07.496Z,94737.96
2019-02-10T15:43:33.297Z,94740.97
2019-02-10T15:46:02.368Z,94745.23
2019-02-10T15:48:28.269Z,94772.37
2019-02-10T15:50:54.328Z,94777.06
2019-02-10T15:53:20.174Z,94784.09
2019-02-10T15:55:48.866Z,94791.36
2019-02-10T15:58:14.985Z,94802.49
2019-02-10T16:00:45.719Z,94804.22
2019-02-10T16:03:11.610Z,94799.64
2019-02-10T16:05:37.510Z,94791.48
2019-02-10T16:08:03.420Z,94818.77
2019-02-10T16:10:29.244Z,94824.77
2019-02-10T16:12:58.063Z,94835.47
2019-02-10T16:15:23.903Z,94825.48
2019-02-10T16:17:52.845Z,94831.98
2019-02-10T16:20:18.836Z,94840.09
2019-02-10T16:22:48.216Z,94828.13
2019-02-10T16:25:14.343Z,94833.19
2019-02-10T16:27:40.172Z,94833.09
2019-02-10T16:30:11.972Z,94844.97
2019-02-10T16:32:38.087Z,94861.07
2019-02-10T16:35:05.394Z,94890.00
2019-02-10T16:37:31.246Z,94899.88
2019-02-10T16:39:57.075Z,94858.97
2019-02-10T16:42:22.920Z,94899.04
2019-02-10T16:44:48.762Z,94899.91
2019-02-10T16:47:14.591Z,94902.87
2019-02-10T16:49:41.165Z,94898.73
2019-02-10T16:52:07.247Z,94914.88
2019-02-10T16:54:36.203Z,94921.34
2019-02-10T16:57:02.038Z,94904.45
2019-02-10T16:59:30.759Z,94901.13
2019-02-10T17:01:56.573Z,94919.07
2019-02-10T17:04:25.139Z,94924.63
2019-02-10T17:06:51.283Z,94924.63
2019-02-10T17:09:19.969Z,94967.78
2019-02-10T17:11:45.823Z,94962.53
2019-02-10T17:14:16.121Z,94960.53
2019-02-10T17:16:41.941Z,94970.72
2019-02-10T17:19:07.808Z,95006.09
2019-02-10T17:21:33.634Z,95020.53
2019-02-10T17:23:59.492Z,95019.31
2019-02-10T17:26:28.094Z,95023.42
2019-02-10T17:28:53.914Z,95033.85
2019-02-10T17:31:21.148Z,95023.84
2019-02-10T17:33:47.245Z,95017.81
2019-02-10T17:36:17.987Z,95011.77
2019-02-10T17:38:43.873Z,95000.72
2019-02-10T17:41:22.622Z,95003.17
2019-02-10T17:43:43.635Z,95004.34
2019-02-10T17:46:09.722Z,94984.00
2019-02-10T17:48:35.857Z,94979.33
2019-02-10T17:51:01.717Z,94960.73
2019-02-10T17:53:27.540Z,94957.94
2019-02-10T17:55:53.701Z,94972.32
2019-02-10T17:58:19.552Z,94984.09
2019-02-10T18:00:47.305Z,94989.12
2019-02-10T18:03:13.416Z,94996.55
2019-02-10T18:05:39.542Z,94994.91
2019-02-10T18:08:08.430Z,95006.67
2019-02-10T18:10:34.351Z,95013.92
2019-02-10T18:13:02.953Z,95022.95
2019-02-10T18:15:30.704Z,95054.41
2019-02-10T18:17:58.742Z,95027.05
2019-02-10T18:23:03.169Z,95054.32
2019-02-10T18:25:33.750Z,95064.95
2019-02-10T18:28:10.824Z,95066.25
2019-02-10T18:30:55.586Z,95074.42
2019-02-10T18:33:26.304Z,95086.66
2019-02-10T18:35:54.342Z,95083.42
2019-02-10T18:38:37.529Z,95105.81
2019-02-10T18:41:08.072Z,95102.09
2019-02-10T18:43:35.820Z,95134.50
2019-02-10T18:46:04.662Z,95134.27
2019-02-10T18:48:41.681Z,95149.80
2019-02-10T18:51:09.725Z,95165.56
2019-02-10T18:53:46.376Z,95178.81
2019-02-10T18:56:16.900Z,95184.61
2019-02-10T18:58:44.632Z,95177.89
2019-02-10T19:01:15.694Z,95194.83
2019-02-10T19:03:55.377Z,95198.88
2019-02-10T19:06:32.035Z,95186.50
2019-02-10T19:09:19.339Z,95191.59
2019-02-10T19:11:49.914Z,95203.77
2019-02-10T19:14:23.493Z,95189.77
2019-02-10T19:17:08.028Z,95197.05
2019-02-10T19:19:39.009Z,95203.67
2019-02-10T19:22:06.808Z,95207.11
2019-02-10T19:24:34.821Z,95213.41
2019-02-10T19:27:05.827Z,95209.98
2019-02-10T19:29:33.824Z,95226.00
2019-02-10T19:32:18.162Z,95209.63
2019-02-10T19:34:51.742Z,95207.97
2019-02-10T19:37:36.459Z,95218.66
2019-02-10T19:40:18.775Z,95162.30
2019-02-10T19:42:55.573Z,95228.03
2019-02-10T19:45:23.298Z,95211.72
2019-02-10T19:48:00.091Z,95204.47
2019-02-10T19:50:28.081Z,95209.05
2019-02-10T19:53:13.790Z,95216.22
2019-02-10T19:55:49.522Z,95222.29
2019-02-10T20:01:08.784Z,95202.59
2019-02-10T20:03:36.702Z,95205.73
2019-02-10T20:06:04.563Z,95189.34
2019-02-10T20:08:44.833Z,95207.30
2019-02-10T20:14:07.747Z,95229.88
2019-02-10T20:16:41.748Z,95242.80
2019-02-10T20:19:26.071Z,95244.55
2019-02-10T20:21:53.814Z,95256.71
2019-02-10T20:24:24.272Z,95256.06
2019-02-10T20:27:08.703Z,95257.91
2019-02-10T20:29:48.919Z,95255.11
2019-02-10T20:32:19.454Z,95262.21
2019-02-10T20:34:49.980Z,95271.08
2019-02-10T20:37:17.744Z,95294.22
2019-02-10T20:39:48.724Z,95292.17
2019-02-10T20:42:33.023Z,95293.44
2019-02-10T20:45:00.775Z,95305.17
2019-02-10T20:47:37.282Z,95313.66
2019-02-10T20:50:23.042Z,95322.84
2019-02-10T20:53:08.120Z,95344.13
2019-02-10T20:55:45.108Z,95343.45
2019-02-10T20:58:12.846Z,95350.07
2019-02-10T21:00:40.573Z,95358.77
2019-02-10T21:03:16.997Z,95368.09
2019-02-10T21:06:00.098Z,95371.29
2019-02-10T21:08:30.937Z,95376.31
2019-02-10T21:11:13.910Z,95380.05
2019-02-10T21:13:41.652Z,95388.20
2019-02-10T21:16:27.641Z,95396.02
2019-02-10T21:19:14.146Z,95393.70
2019-02-10T21:22:03.568Z,95381.33
2019-02-10T21:24:46.523Z,95388.37
2019-02-10T21:27:14.289Z,95373.14
2019-02-10T21:29:44.776Z,95296.43
2019-02-10T21:32:18.366Z,95381.45
2019-02-10T21:34:46.397Z,95375.06
2019-02-10T21:37:14.117Z,95385.39
2019-02-10T21:40:00.692Z,95381.71
2019-02-10T21:42:29.250Z,95390.38
2019-02-10T21:45:01.111Z,95395.93
2019-02-10T21:47:28.866Z,95403.28
2019-02-10T21:49:54.702Z,95412.14
2019-02-10T21:52:22.061Z,95405.16
2019-02-10T21:54:48.147Z,95415.38
2019-02-10T21:57:13.958Z,95427.77
2019-02-10T21:59:39.815Z,95418.21
2019-02-10T22:02:05.870Z,95415.82
2019-02-10T22:04:34.747Z,95428.36
2019-02-10T22:07:00.857Z,95436.27
2019-02-10T22:09:29.714Z,95434.61
2019-02-10T22:11:55.824Z,95452.19
2019-02-10T22:14:22.844Z,95437.92
2019-02-10T22:16:48.685Z,95437.92
2019-02-10T22:19:17.423Z,95438.58
2019-02-10T22:21:43.294Z,95427.76
2019-02-10T22:24:12.203Z,95436.77
2019-02-10T22:26:38.045Z,95446.07
2019-02-10T22:29:11.307Z,95437.95
2019-02-10T22:31:37.550Z,95441.84
2019-02-10T22:34:03.353Z,95425.87
2019-02-10T22:36:29.181Z,95425.87
2019-02-10T22:38:55.055Z,95424.02
2019-02-10T22:41:20.869Z,95431.56
2019-02-10T22:43:47.053Z,95434.69
2019-02-10T22:46:16.204Z,95440.03
2019-02-10T22:48:42.023Z,95467.14
2019-02-10T22:51:11.183Z,95453.83
2019-02-10T22:53:37.013Z,95466.08
2019-02-10T22:56:02.881Z,95470.16
2019-02-10T22:58:29.024Z,95473.59
2019-02-10T23:01:00.120Z,95441.12
2019-02-10T23:03:25.930Z,95500.34
2019-02-10T23:05:54.919Z,95495.73
2019-02-10T23:08:20.743Z,95495.88
2019-02-10T23:10:46.944Z,95485.06
2019-02-10T23:13:13.086Z,95488.30
2019-02-10T23:15:38.901Z,95496.55
2019-02-10T23:18:05.113Z,95453.95
2019-02-10T23:20:30.927Z,95492.94
2019-02-10T23:22:59.833Z,95501.03
2019-02-10T23:25:25.935Z,95507.28
2019-02-10T23:27:54.811Z,95503.05
2019-02-10T23:30:20.762Z,95524.47
2019-02-10T23:32:49.365Z,95537.96
2019-02-10T23:35:15.183Z,95533.98
2019-02-10T23:37:43.792Z,95514.48
2019-02-10T23:40:09.744Z,95555.75
2019-02-10T23:42:38.981Z,95531.30
2019-02-10T23:45:05.780Z,95556.07
2019-02-10T23:47:31.624Z,95571.52
2019-02-10T23:49:57.426Z,95575.00
2019-02-10T23:52:23.539Z,95578.94
2019-02-10T23:54:49.553Z,95577.45
2019-02-10T23:57:15.411Z,95568.29
2019-02-10T23:59:44.090Z,95596.23
